sensor_id;sensor_type;location;lat;lon;timestamp;P1;durP1;ratioP1;P2;durP2;ratioP2
81180;SDS011;70650;51.408;7.132;2023-06-24T00:00:05;8.53;;;3.90;;
81180;SDS011;70650;51.408;7.132;2023-06-24T00:02:32;11.23;;;4.38;;
81180;SDS011;70650;51.408;7.132;2023-06-24T00:04:59;10.50;;;4.10;;
81180;SDS011;70650;51.408;7.132;2023-06-24T00:07:25;14.52;;;4.25;;
81180;SDS011;70650;51.408;7.132;2023-06-24T00:09:51;9.80;;;3.75;;
81180;SDS011;70650;51.408;7.132;2023-06-24T00:12:16;9.20;;;3.97;;
81180;SDS011;70650;51.408;7.132;2023-06-24T00:14:44;8.07;;;3.50;;
81180;SDS011;70650;51.408;7.132;2023-06-24T00:17:10;10.55;;;4.07;;
81180;SDS011;70650;51.408;7.132;2023-06-24T00:19:36;8.50;;;3.90;;
81180;SDS011;70650;51.408;7.132;2023-06-24T00:22:02;8.55;;;3.60;;
81180;SDS011;70650;51.408;7.132;2023-06-24T00:24:28;9.27;;;4.15;;
81180;SDS011;70650;51.408;7.132;2023-06-24T00:26:54;8.45;;;4.13;;
81180;SDS011;70650;51.408;7.132;2023-06-24T00:29:20;8.45;;;3.80;;
81180;SDS011;70650;51.408;7.132;2023-06-24T00:31:46;8.30;;;4.10;;
81180;SDS011;70650;51.408;7.132;2023-06-24T00:34:12;9.25;;;4.20;;
81180;SDS011;70650;51.408;7.132;2023-06-24T00:36:37;9.27;;;3.97;;
81180;SDS011;70650;51.408;7.132;2023-06-24T00:39:03;8.82;;;4.25;;
81180;SDS011;70650;51.408;7.132;2023-06-24T00:41:29;12.13;;;4.05;;
81180;SDS011;70650;51.408;7.132;2023-06-24T00:43:55;10.27;;;4.35;;
81180;SDS011;70650;51.408;7.132;2023-06-24T00:46:22;8.38;;;4.10;;
81180;SDS011;70650;51.408;7.132;2023-06-24T00:48:50;9.35;;;3.92;;
81180;SDS011;70650;51.408;7.132;2023-06-24T00:51:16;7.85;;;3.60;;
81180;SDS011;70650;51.408;7.132;2023-06-24T00:53:41;10.33;;;4.13;;
81180;SDS011;70650;51.408;7.132;2023-06-24T00:56:06;8.73;;;3.83;;
81180;SDS011;70650;51.408;7.132;2023-06-24T00:58:32;9.43;;;4.03;;
81180;SDS011;70650;51.408;7.132;2023-06-24T01:01:00;8.90;;;3.90;;
81180;SDS011;70650;51.408;7.132;2023-06-24T01:03:26;8.82;;;3.92;;
81180;SDS011;70650;51.408;7.132;2023-06-24T01:05:54;9.07;;;4.18;;
81180;SDS011;70650;51.408;7.132;2023-06-24T01:08:19;10.02;;;3.95;;
81180;SDS011;70650;51.408;7.132;2023-06-24T01:10:48;7.85;;;3.85;;
81180;SDS011;70650;51.408;7.132;2023-06-24T01:13:15;11.70;;;4.22;;
81180;SDS011;70650;51.408;7.132;2023-06-24T01:15:40;10.10;;;4.45;;
81180;SDS011;70650;51.408;7.132;2023-06-24T01:20:56;13.40;;;3.78;;
81180;SDS011;70650;51.408;7.132;2023-06-24T01:26:11;11.05;;;4.45;;
81180;SDS011;70650;51.408;7.132;2023-06-24T01:36:47;11.80;;;3.97;;
81180;SDS011;70650;51.408;7.132;2023-06-24T01:39:19;12.30;;;3.95;;
81180;SDS011;70650;51.408;7.132;2023-06-24T01:41:51;11.05;;;4.60;;
81180;SDS011;70650;51.408;7.132;2023-06-24T01:44:23;9.90;;;3.72;;
81180;SDS011;70650;51.408;7.132;2023-06-24T01:46:52;10.43;;;4.05;;
81180;SDS011;70650;51.408;7.132;2023-06-24T01:49:21;7.60;;;3.58;;
81180;SDS011;70650;51.408;7.132;2023-06-24T01:54:16;9.17;;;4.03;;
81180;SDS011;70650;51.408;7.132;2023-06-24T01:56:47;8.65;;;3.90;;
81180;SDS011;70650;51.408;7.132;2023-06-24T01:59:15;12.43;;;4.53;;
81180;SDS011;70650;51.408;7.132;2023-06-24T02:01:42;12.43;;;4.30;;
81180;SDS011;70650;51.408;7.132;2023-06-24T02:04:09;10.32;;;4.32;;
81180;SDS011;70650;51.408;7.132;2023-06-24T02:06:36;13.45;;;4.75;;
81180;SDS011;70650;51.408;7.132;2023-06-24T02:09:05;10.05;;;3.75;;
81180;SDS011;70650;51.408;7.132;2023-06-24T02:11:31;10.88;;;4.40;;
81180;SDS011;70650;51.408;7.132;2023-06-24T02:13:58;9.35;;;4.18;;
81180;SDS011;70650;51.408;7.132;2023-06-24T02:16:26;13.50;;;4.22;;
81180;SDS011;70650;51.408;7.132;2023-06-24T02:18:52;9.95;;;4.57;;
81180;SDS011;70650;51.408;7.132;2023-06-24T02:21:20;8.85;;;4.13;;
81180;SDS011;70650;51.408;7.132;2023-06-24T02:23:46;10.07;;;4.25;;
81180;SDS011;70650;51.408;7.132;2023-06-24T02:26:13;7.72;;;3.83;;
81180;SDS011;70650;51.408;7.132;2023-06-24T02:28:40;12.90;;;4.22;;
81180;SDS011;70650;51.408;7.132;2023-06-24T02:31:06;10.80;;;4.25;;
81180;SDS011;70650;51.408;7.132;2023-06-24T02:33:34;9.30;;;4.03;;
81180;SDS011;70650;51.408;7.132;2023-06-24T02:35:59;9.65;;;4.22;;
81180;SDS011;70650;51.408;7.132;2023-06-24T02:38:24;8.93;;;3.90;;
81180;SDS011;70650;51.408;7.132;2023-06-24T02:40:49;9.43;;;3.63;;
81180;SDS011;70650;51.408;7.132;2023-06-24T02:43:17;13.35;;;4.28;;
81180;SDS011;70650;51.408;7.132;2023-06-24T02:45:43;12.55;;;4.90;;
81180;SDS011;70650;51.408;7.132;2023-06-24T02:48:10;9.40;;;4.38;;
81180;SDS011;70650;51.408;7.132;2023-06-24T02:50:38;9.55;;;3.58;;
81180;SDS011;70650;51.408;7.132;2023-06-24T02:53:05;9.25;;;4.25;;
81180;SDS011;70650;51.408;7.132;2023-06-24T02:55:32;9.23;;;3.95;;
81180;SDS011;70650;51.408;7.132;2023-06-24T02:57:59;9.73;;;4.00;;
81180;SDS011;70650;51.408;7.132;2023-06-24T03:00:25;16.77;;;4.05;;
81180;SDS011;70650;51.408;7.132;2023-06-24T03:02:50;9.50;;;4.20;;
81180;SDS011;70650;51.408;7.132;2023-06-24T03:05:16;12.63;;;4.22;;
81180;SDS011;70650;51.408;7.132;2023-06-24T03:07:43;13.38;;;4.35;;
81180;SDS011;70650;51.408;7.132;2023-06-24T03:10:10;9.43;;;3.95;;
81180;SDS011;70650;51.408;7.132;2023-06-24T03:12:35;12.70;;;3.60;;
81180;SDS011;70650;51.408;7.132;2023-06-24T03:15:01;8.52;;;4.32;;
81180;SDS011;70650;51.408;7.132;2023-06-24T03:17:27;11.60;;;3.80;;
81180;SDS011;70650;51.408;7.132;2023-06-24T03:19:52;11.05;;;4.43;;
81180;SDS011;70650;51.408;7.132;2023-06-24T03:22:17;8.50;;;3.60;;
81180;SDS011;70650;51.408;7.132;2023-06-24T03:24:43;9.02;;;4.35;;
81180;SDS011;70650;51.408;7.132;2023-06-24T03:27:08;11.38;;;4.35;;
81180;SDS011;70650;51.408;7.132;2023-06-24T03:29:34;12.32;;;4.70;;
81180;SDS011;70650;51.408;7.132;2023-06-24T03:31:59;11.00;;;4.30;;
81180;SDS011;70650;51.408;7.132;2023-06-24T03:34:25;12.20;;;4.38;;
81180;SDS011;70650;51.408;7.132;2023-06-24T03:36:51;12.85;;;5.07;;
81180;SDS011;70650;51.408;7.132;2023-06-24T03:39:19;12.77;;;4.63;;
81180;SDS011;70650;51.408;7.132;2023-06-24T03:41:44;11.65;;;4.70;;
81180;SDS011;70650;51.408;7.132;2023-06-24T03:44:10;10.67;;;4.90;;
81180;SDS011;70650;51.408;7.132;2023-06-24T03:46:35;9.63;;;4.57;;
81180;SDS011;70650;51.408;7.132;2023-06-24T03:49:00;9.97;;;4.43;;
81180;SDS011;70650;51.408;7.132;2023-06-24T03:51:27;9.75;;;4.47;;
81180;SDS011;70650;51.408;7.132;2023-06-24T03:53:52;11.57;;;4.43;;
81180;SDS011;70650;51.408;7.132;2023-06-24T03:56:17;10.93;;;4.40;;
81180;SDS011;70650;51.408;7.132;2023-06-24T03:58:43;9.10;;;4.17;;
81180;SDS011;70650;51.408;7.132;2023-06-24T04:01:08;10.93;;;4.40;;
81180;SDS011;70650;51.408;7.132;2023-06-24T04:03:34;9.02;;;4.28;;
81180;SDS011;70650;51.408;7.132;2023-06-24T04:06:00;11.52;;;4.22;;
81180;SDS011;70650;51.408;7.132;2023-06-24T04:08:27;9.60;;;4.80;;
81180;SDS011;70650;51.408;7.132;2023-06-24T04:10:54;11.55;;;4.60;;
81180;SDS011;70650;51.408;7.132;2023-06-24T04:13:20;13.10;;;4.75;;
81180;SDS011;70650;51.408;7.132;2023-06-24T04:15:45;11.15;;;4.50;;
81180;SDS011;70650;51.408;7.132;2023-06-24T04:18:11;10.73;;;4.40;;
81180;SDS011;70650;51.408;7.132;2023-06-24T04:20:36;11.13;;;4.40;;
81180;SDS011;70650;51.408;7.132;2023-06-24T04:23:01;9.60;;;4.07;;
81180;SDS011;70650;51.408;7.132;2023-06-24T04:25:27;11.10;;;4.53;;
81180;SDS011;70650;51.408;7.132;2023-06-24T04:27:52;9.18;;;4.15;;
81180;SDS011;70650;51.408;7.132;2023-06-24T04:30:17;11.60;;;4.00;;
81180;SDS011;70650;51.408;7.132;2023-06-24T04:32:43;9.53;;;4.13;;
81180;SDS011;70650;51.408;7.132;2023-06-24T04:35:08;9.90;;;4.10;;
81180;SDS011;70650;51.408;7.132;2023-06-24T04:37:34;8.25;;;3.95;;
81180;SDS011;70650;51.408;7.132;2023-06-24T04:39:59;11.07;;;4.47;;
81180;SDS011;70650;51.408;7.132;2023-06-24T04:42:24;12.93;;;4.40;;
81180;SDS011;70650;51.408;7.132;2023-06-24T04:44:50;10.57;;;4.00;;
81180;SDS011;70650;51.408;7.132;2023-06-24T04:47:17;9.45;;;4.32;;
81180;SDS011;70650;51.408;7.132;2023-06-24T04:49:43;10.98;;;4.38;;
81180;SDS011;70650;51.408;7.132;2023-06-24T04:52:08;12.00;;;4.75;;
81180;SDS011;70650;51.408;7.132;2023-06-24T04:54:35;10.40;;;4.32;;
81180;SDS011;70650;51.408;7.132;2023-06-24T04:57:00;8.60;;;4.10;;
81180;SDS011;70650;51.408;7.132;2023-06-24T04:59:25;8.23;;;3.87;;
81180;SDS011;70650;51.408;7.132;2023-06-24T05:01:51;11.63;;;4.78;;
81180;SDS011;70650;51.408;7.132;2023-06-24T05:04:16;10.83;;;4.07;;
81180;SDS011;70650;51.408;7.132;2023-06-24T05:06:41;11.17;;;4.20;;
81180;SDS011;70650;51.408;7.132;2023-06-24T05:09:07;10.40;;;3.83;;
81180;SDS011;70650;51.408;7.132;2023-06-24T05:11:32;8.82;;;4.18;;
81180;SDS011;70650;51.408;7.132;2023-06-24T05:13:57;9.87;;;4.43;;
81180;SDS011;70650;51.408;7.132;2023-06-24T05:16:23;11.25;;;4.43;;
81180;SDS011;70650;51.408;7.132;2023-06-24T05:18:49;9.18;;;4.03;;
81180;SDS011;70650;51.408;7.132;2023-06-24T05:21:15;9.27;;;4.07;;
81180;SDS011;70650;51.408;7.132;2023-06-24T05:23:40;11.30;;;4.25;;
81180;SDS011;70650;51.408;7.132;2023-06-24T05:26:05;9.70;;;4.00;;
81180;SDS011;70650;51.408;7.132;2023-06-24T05:28:30;8.73;;;3.27;;
81180;SDS011;70650;51.408;7.132;2023-06-24T05:30:56;8.77;;;4.40;;
81180;SDS011;70650;51.408;7.132;2023-06-24T05:33:21;11.45;;;4.32;;
81180;SDS011;70650;51.408;7.132;2023-06-24T05:35:47;10.53;;;4.37;;
81180;SDS011;70650;51.408;7.132;2023-06-24T05:38:12;10.95;;;4.20;;
81180;SDS011;70650;51.408;7.132;2023-06-24T05:40:37;11.18;;;4.40;;
81180;SDS011;70650;51.408;7.132;2023-06-24T05:43:03;8.37;;;3.63;;
81180;SDS011;70650;51.408;7.132;2023-06-24T05:45:28;8.60;;;3.70;;
81180;SDS011;70650;51.408;7.132;2023-06-24T05:47:53;8.55;;;3.83;;
81180;SDS011;70650;51.408;7.132;2023-06-24T05:50:19;8.73;;;4.03;;
81180;SDS011;70650;51.408;7.132;2023-06-24T05:52:44;8.02;;;3.85;;
81180;SDS011;70650;51.408;7.132;2023-06-24T05:55:09;9.03;;;4.37;;
81180;SDS011;70650;51.408;7.132;2023-06-24T05:57:35;11.65;;;4.78;;
81180;SDS011;70650;51.408;7.132;2023-06-24T06:00:00;10.07;;;4.40;;
81180;SDS011;70650;51.408;7.132;2023-06-24T06:02:25;9.52;;;4.65;;
81180;SDS011;70650;51.408;7.132;2023-06-24T06:04:51;11.57;;;4.72;;
81180;SDS011;70650;51.408;7.132;2023-06-24T06:07:16;9.17;;;4.47;;
81180;SDS011;70650;51.408;7.132;2023-06-24T06:09:42;8.57;;;4.33;;
81180;SDS011;70650;51.408;7.132;2023-06-24T06:12:07;10.35;;;5.45;;
81180;SDS011;70650;51.408;7.132;2023-06-24T06:14:33;8.90;;;4.63;;
81180;SDS011;70650;51.408;7.132;2023-06-24T06:16:58;10.13;;;5.22;;
81180;SDS011;70650;51.408;7.132;2023-06-24T06:19:23;9.97;;;5.43;;
81180;SDS011;70650;51.408;7.132;2023-06-24T06:21:49;11.33;;;5.77;;
81180;SDS011;70650;51.408;7.132;2023-06-24T06:24:17;10.70;;;5.75;;
81180;SDS011;70650;51.408;7.132;2023-06-24T06:26:43;10.10;;;5.82;;
81180;SDS011;70650;51.408;7.132;2023-06-24T06:29:09;11.00;;;6.25;;
81180;SDS011;70650;51.408;7.132;2023-06-24T06:31:35;12.45;;;6.22;;
81180;SDS011;70650;51.408;7.132;2023-06-24T06:34:00;11.07;;;6.10;;
81180;SDS011;70650;51.408;7.132;2023-06-24T06:36:26;12.95;;;7.13;;
81180;SDS011;70650;51.408;7.132;2023-06-24T06:38:52;11.07;;;6.18;;
81180;SDS011;70650;51.408;7.132;2023-06-24T06:41:17;12.50;;;6.60;;
81180;SDS011;70650;51.408;7.132;2023-06-24T06:43:49;11.90;;;6.65;;
81180;SDS011;70650;51.408;7.132;2023-06-24T06:46:14;11.70;;;6.28;;
81180;SDS011;70650;51.408;7.132;2023-06-24T06:48:39;11.17;;;6.00;;
81180;SDS011;70650;51.408;7.132;2023-06-24T06:51:05;10.50;;;5.90;;
81180;SDS011;70650;51.408;7.132;2023-06-24T06:53:31;11.60;;;6.22;;
81180;SDS011;70650;51.408;7.132;2023-06-24T06:55:56;10.60;;;5.73;;
81180;SDS011;70650;51.408;7.132;2023-06-24T06:58:23;10.30;;;5.88;;
81180;SDS011;70650;51.408;7.132;2023-06-24T07:00:48;11.45;;;5.80;;
81180;SDS011;70650;51.408;7.132;2023-06-24T07:03:14;10.40;;;6.20;;
81180;SDS011;70650;51.408;7.132;2023-06-24T07:05:39;12.47;;;6.43;;
81180;SDS011;70650;51.408;7.132;2023-06-24T07:08:05;9.20;;;5.60;;
81180;SDS011;70650;51.408;7.132;2023-06-24T07:10:30;11.85;;;6.30;;
81180;SDS011;70650;51.408;7.132;2023-06-24T07:12:55;12.73;;;6.33;;
81180;SDS011;70650;51.408;7.132;2023-06-24T07:15:23;10.55;;;5.90;;
81180;SDS011;70650;51.408;7.132;2023-06-24T07:17:49;12.75;;;6.55;;
81180;SDS011;70650;51.408;7.132;2023-06-24T07:20:15;10.73;;;5.90;;
81180;SDS011;70650;51.408;7.132;2023-06-24T07:22:40;15.17;;;7.30;;
81180;SDS011;70650;51.408;7.132;2023-06-24T07:25:05;12.93;;;6.27;;
81180;SDS011;70650;51.408;7.132;2023-06-24T07:27:31;10.23;;;6.35;;
81180;SDS011;70650;51.408;7.132;2023-06-24T07:29:56;14.47;;;6.97;;
81180;SDS011;70650;51.408;7.132;2023-06-24T07:32:21;12.93;;;8.30;;
81180;SDS011;70650;51.408;7.132;2023-06-24T07:34:46;14.63;;;7.90;;
81180;SDS011;70650;51.408;7.132;2023-06-24T07:37:12;13.45;;;8.05;;
81180;SDS011;70650;51.408;7.132;2023-06-24T07:39:37;12.45;;;7.20;;
81180;SDS011;70650;51.408;7.132;2023-06-24T07:42:03;14.00;;;8.23;;
81180;SDS011;70650;51.408;7.132;2023-06-24T07:44:28;15.55;;;8.65;;
81180;SDS011;70650;51.408;7.132;2023-06-24T07:46:53;13.53;;;8.20;;
81180;SDS011;70650;51.408;7.132;2023-06-24T07:49:19;14.33;;;8.53;;
81180;SDS011;70650;51.408;7.132;2023-06-24T07:51:44;14.73;;;8.57;;
81180;SDS011;70650;51.408;7.132;2023-06-24T07:54:10;13.35;;;8.63;;
81180;SDS011;70650;51.408;7.132;2023-06-24T07:56:36;13.43;;;8.48;;
81180;SDS011;70650;51.408;7.132;2023-06-24T07:59:01;17.33;;;9.57;;
81180;SDS011;70650;51.408;7.132;2023-06-24T08:01:27;17.23;;;9.23;;
81180;SDS011;70650;51.408;7.132;2023-06-24T08:03:52;18.10;;;10.65;;
81180;SDS011;70650;51.408;7.132;2023-06-24T08:06:18;16.10;;;10.02;;
81180;SDS011;70650;51.408;7.132;2023-06-24T08:08:43;17.25;;;10.68;;
81180;SDS011;70650;51.408;7.132;2023-06-24T08:11:11;15.65;;;9.77;;
81180;SDS011;70650;51.408;7.132;2023-06-24T08:13:36;18.57;;;9.60;;
81180;SDS011;70650;51.408;7.132;2023-06-24T08:16:01;16.03;;;10.13;;
81180;SDS011;70650;51.408;7.132;2023-06-24T08:18:27;20.85;;;12.27;;
81180;SDS011;70650;51.408;7.132;2023-06-24T08:20:52;18.73;;;12.13;;
81180;SDS011;70650;51.408;7.132;2023-06-24T08:23:18;16.88;;;11.75;;
81180;SDS011;70650;51.408;7.132;2023-06-24T08:25:43;17.63;;;10.23;;
81180;SDS011;70650;51.408;7.132;2023-06-24T08:28:08;20.13;;;11.00;;
81180;SDS011;70650;51.408;7.132;2023-06-24T08:30:34;20.10;;;11.90;;
81180;SDS011;70650;51.408;7.132;2023-06-24T08:32:59;19.17;;;11.27;;
81180;SDS011;70650;51.408;7.132;2023-06-24T08:35:24;19.47;;;11.70;;
81180;SDS011;70650;51.408;7.132;2023-06-24T08:37:49;22.03;;;11.77;;
81180;SDS011;70650;51.408;7.132;2023-06-24T08:40:15;17.37;;;9.03;;
81180;SDS011;70650;51.408;7.132;2023-06-24T08:42:40;14.87;;;8.23;;
81180;SDS011;70650;51.408;7.132;2023-06-24T08:45:06;13.33;;;7.73;;
81180;SDS011;70650;51.408;7.132;2023-06-24T08:47:32;14.40;;;8.13;;
81180;SDS011;70650;51.408;7.132;2023-06-24T08:50:03;15.10;;;8.52;;
81180;SDS011;70650;51.408;7.132;2023-06-24T08:52:42;13.88;;;7.75;;
81180;SDS011;70650;51.408;7.132;2023-06-24T08:55:10;13.52;;;7.07;;
81180;SDS011;70650;51.408;7.132;2023-06-24T08:57:39;13.32;;;7.18;;
81180;SDS011;70650;51.408;7.132;2023-06-24T09:00:05;15.90;;;8.95;;
81180;SDS011;70650;51.408;7.132;2023-06-24T09:02:34;15.15;;;8.15;;
81180;SDS011;70650;51.408;7.132;2023-06-24T09:05:03;13.68;;;7.25;;
81180;SDS011;70650;51.408;7.132;2023-06-24T09:07:29;13.98;;;8.02;;
81180;SDS011;70650;51.408;7.132;2023-06-24T09:09:54;13.30;;;6.47;;
81180;SDS011;70650;51.408;7.132;2023-06-24T09:12:20;9.00;;;4.53;;
81180;SDS011;70650;51.408;7.132;2023-06-24T09:14:49;11.20;;;5.53;;
81180;SDS011;70650;51.408;7.132;2023-06-24T09:17:15;10.30;;;5.65;;
81180;SDS011;70650;51.408;7.132;2023-06-24T09:19:40;11.73;;;5.28;;
81180;SDS011;70650;51.408;7.132;2023-06-24T09:22:07;8.50;;;4.53;;
81180;SDS011;70650;51.408;7.132;2023-06-24T09:24:34;9.23;;;4.05;;
81180;SDS011;70650;51.408;7.132;2023-06-24T09:27:00;10.38;;;5.50;;
81180;SDS011;70650;51.408;7.132;2023-06-24T09:29:27;9.13;;;3.97;;
81180;SDS011;70650;51.408;7.132;2023-06-24T09:31:54;8.38;;;4.35;;
81180;SDS011;70650;51.408;7.132;2023-06-24T09:34:21;9.07;;;4.20;;
81180;SDS011;70650;51.408;7.132;2023-06-24T09:36:51;9.80;;;4.82;;
81180;SDS011;70650;51.408;7.132;2023-06-24T09:39:20;9.50;;;5.15;;
81180;SDS011;70650;51.408;7.132;2023-06-24T09:41:50;9.60;;;4.28;;
81180;SDS011;70650;51.408;7.132;2023-06-24T09:44:16;10.80;;;5.63;;
81180;SDS011;70650;51.408;7.132;2023-06-24T09:46:44;10.07;;;5.05;;
81180;SDS011;70650;51.408;7.132;2023-06-24T09:49:09;8.75;;;4.40;;
81180;SDS011;70650;51.408;7.132;2023-06-24T09:51:37;9.23;;;3.90;;
81180;SDS011;70650;51.408;7.132;2023-06-24T09:54:05;6.95;;;3.33;;
81180;SDS011;70650;51.408;7.132;2023-06-24T09:56:32;7.93;;;3.45;;
81180;SDS011;70650;51.408;7.132;2023-06-24T09:59:00;8.90;;;3.83;;
81180;SDS011;70650;51.408;7.132;2023-06-24T10:01:27;7.85;;;3.83;;
81180;SDS011;70650;51.408;7.132;2023-06-24T10:03:52;10.23;;;4.95;;
81180;SDS011;70650;51.408;7.132;2023-06-24T10:06:18;8.98;;;3.63;;
81180;SDS011;70650;51.408;7.132;2023-06-24T10:08:44;9.30;;;4.35;;
81180;SDS011;70650;51.408;7.132;2023-06-24T10:11:10;10.45;;;4.25;;
81180;SDS011;70650;51.408;7.132;2023-06-24T10:13:35;7.97;;;4.20;;
81180;SDS011;70650;51.408;7.132;2023-06-24T10:16:00;9.38;;;4.18;;
81180;SDS011;70650;51.408;7.132;2023-06-24T10:21:00;7.70;;;3.63;;
81180;SDS011;70650;51.408;7.132;2023-06-24T10:23:34;6.95;;;3.40;;
81180;SDS011;70650;51.408;7.132;2023-06-24T10:29:00;8.00;;;3.67;;
81180;SDS011;70650;51.408;7.132;2023-06-24T10:34:19;11.48;;;4.68;;
81180;SDS011;70650;51.408;7.132;2023-06-24T10:39:34;7.78;;;3.45;;
81180;SDS011;70650;51.408;7.132;2023-06-24T10:44:49;8.75;;;3.92;;
81180;SDS011;70650;51.408;7.132;2023-06-24T10:47:15;7.47;;;3.85;;
81180;SDS011;70650;51.408;7.132;2023-06-24T10:49:44;7.30;;;3.55;;
81180;SDS011;70650;51.408;7.132;2023-06-24T10:52:10;7.68;;;3.80;;
81180;SDS011;70650;51.408;7.132;2023-06-24T10:54:40;7.20;;;3.85;;
81180;SDS011;70650;51.408;7.132;2023-06-24T10:57:06;6.90;;;3.35;;
81180;SDS011;70650;51.408;7.132;2023-06-24T10:59:42;6.90;;;3.05;;
81180;SDS011;70650;51.408;7.132;2023-06-24T11:02:14;8.05;;;3.10;;
81180;SDS011;70650;51.408;7.132;2023-06-24T11:04:52;8.32;;;3.60;;
81180;SDS011;70650;51.408;7.132;2023-06-24T11:07:19;8.07;;;3.47;;
81180;SDS011;70650;51.408;7.132;2023-06-24T11:09:49;6.75;;;3.17;;
81180;SDS011;70650;51.408;7.132;2023-06-24T11:12:15;7.70;;;3.35;;
81180;SDS011;70650;51.408;7.132;2023-06-24T11:14:41;8.32;;;4.00;;
81180;SDS011;70650;51.408;7.132;2023-06-24T11:17:06;6.37;;;3.20;;
81180;SDS011;70650;51.408;7.132;2023-06-24T11:19:31;6.85;;;3.30;;
81180;SDS011;70650;51.408;7.132;2023-06-24T11:22:01;7.97;;;3.13;;
81180;SDS011;70650;51.408;7.132;2023-06-24T11:24:29;6.45;;;2.80;;
81180;SDS011;70650;51.408;7.132;2023-06-24T11:26:55;7.45;;;3.55;;
81180;SDS011;70650;51.408;7.132;2023-06-24T11:29:21;6.93;;;2.88;;
81180;SDS011;70650;51.408;7.132;2023-06-24T11:31:47;6.75;;;3.30;;
81180;SDS011;70650;51.408;7.132;2023-06-24T11:34:12;6.57;;;3.10;;
81180;SDS011;70650;51.408;7.132;2023-06-24T11:36:38;7.53;;;2.97;;
81180;SDS011;70650;51.408;7.132;2023-06-24T11:39:05;6.97;;;2.90;;
81180;SDS011;70650;51.408;7.132;2023-06-24T11:41:30;6.70;;;3.13;;
81180;SDS011;70650;51.408;7.132;2023-06-24T11:43:59;7.68;;;3.70;;
81180;SDS011;70650;51.408;7.132;2023-06-24T11:46:24;7.03;;;3.22;;
81180;SDS011;70650;51.408;7.132;2023-06-24T11:49:08;9.75;;;3.45;;
81180;SDS011;70650;51.408;7.132;2023-06-24T11:51:34;7.05;;;3.83;;
81180;SDS011;70650;51.408;7.132;2023-06-24T11:54:00;7.68;;;3.30;;
81180;SDS011;70650;51.408;7.132;2023-06-24T11:56:39;8.18;;;3.80;;
81180;SDS011;70650;51.408;7.132;2023-06-24T11:59:07;7.30;;;3.22;;
81180;SDS011;70650;51.408;7.132;2023-06-24T12:01:43;9.52;;;3.03;;
81180;SDS011;70650;51.408;7.132;2023-06-24T12:04:20;6.75;;;3.13;;
81180;SDS011;70650;51.408;7.132;2023-06-24T12:06:45;7.00;;;2.83;;
81180;SDS011;70650;51.408;7.132;2023-06-24T12:09:11;6.70;;;2.92;;
81180;SDS011;70650;51.408;7.132;2023-06-24T12:11:36;6.70;;;2.70;;
81180;SDS011;70650;51.408;7.132;2023-06-24T12:14:02;6.88;;;2.72;;
81180;SDS011;70650;51.408;7.132;2023-06-24T12:16:28;6.73;;;3.10;;
81180;SDS011;70650;51.408;7.132;2023-06-24T12:18:54;6.88;;;3.20;;
81180;SDS011;70650;51.408;7.132;2023-06-24T12:21:20;6.78;;;3.17;;
81180;SDS011;70650;51.408;7.132;2023-06-24T12:23:45;6.33;;;2.80;;
81180;SDS011;70650;51.408;7.132;2023-06-24T12:26:10;6.63;;;2.72;;
81180;SDS011;70650;51.408;7.132;2023-06-24T12:28:36;7.13;;;3.00;;
81180;SDS011;70650;51.408;7.132;2023-06-24T12:31:02;7.07;;;3.07;;
81180;SDS011;70650;51.408;7.132;2023-06-24T12:33:29;5.55;;;2.80;;
81180;SDS011;70650;51.408;7.132;2023-06-24T12:35:55;5.95;;;2.60;;
81180;SDS011;70650;51.408;7.132;2023-06-24T12:38:20;7.00;;;3.60;;
81180;SDS011;70650;51.408;7.132;2023-06-24T12:40:46;7.67;;;3.57;;
81180;SDS011;70650;51.408;7.132;2023-06-24T12:43:11;6.67;;;3.23;;
81180;SDS011;70650;51.408;7.132;2023-06-24T12:45:37;6.40;;;3.15;;
81180;SDS011;70650;51.408;7.132;2023-06-24T12:48:03;7.63;;;3.08;;
81180;SDS011;70650;51.408;7.132;2023-06-24T12:50:28;7.20;;;3.22;;
81180;SDS011;70650;51.408;7.132;2023-06-24T12:52:56;6.07;;;3.05;;
81180;SDS011;70650;51.408;7.132;2023-06-24T12:55:22;5.93;;;2.63;;
81180;SDS011;70650;51.408;7.132;2023-06-24T12:57:47;7.20;;;3.00;;
81180;SDS011;70650;51.408;7.132;2023-06-24T13:00:13;6.17;;;3.10;;
81180;SDS011;70650;51.408;7.132;2023-06-24T13:02:38;6.57;;;3.40;;
81180;SDS011;70650;51.408;7.132;2023-06-24T13:05:04;6.72;;;3.28;;
81180;SDS011;70650;51.408;7.132;2023-06-24T13:07:29;7.32;;;3.80;;
81180;SDS011;70650;51.408;7.132;2023-06-24T13:09:55;6.25;;;2.95;;
81180;SDS011;70650;51.408;7.132;2023-06-24T13:12:20;5.97;;;2.63;;
81180;SDS011;70650;51.408;7.132;2023-06-24T13:14:46;6.60;;;3.08;;
81180;SDS011;70650;51.408;7.132;2023-06-24T13:17:11;6.87;;;2.90;;
81180;SDS011;70650;51.408;7.132;2023-06-24T13:19:38;6.93;;;2.92;;
81180;SDS011;70650;51.408;7.132;2023-06-24T13:22:03;6.03;;;2.70;;
81180;SDS011;70650;51.408;7.132;2023-06-24T13:24:28;5.80;;;2.47;;
81180;SDS011;70650;51.408;7.132;2023-06-24T13:26:54;6.22;;;2.70;;
81180;SDS011;70650;51.408;7.132;2023-06-24T13:29:21;6.70;;;2.80;;
81180;SDS011;70650;51.408;7.132;2023-06-24T13:31:46;6.55;;;3.53;;
81180;SDS011;70650;51.408;7.132;2023-06-24T13:34:12;6.47;;;3.13;;
81180;SDS011;70650;51.408;7.132;2023-06-24T13:36:38;6.60;;;2.60;;
81180;SDS011;70650;51.408;7.132;2023-06-24T13:39:04;7.60;;;2.83;;
81180;SDS011;70650;51.408;7.132;2023-06-24T13:41:30;5.32;;;2.42;;
81180;SDS011;70650;51.408;7.132;2023-06-24T13:44:01;5.82;;;2.75;;
81180;SDS011;70650;51.408;7.132;2023-06-24T13:46:27;5.93;;;3.05;;
81180;SDS011;70650;51.408;7.132;2023-06-24T13:48:53;6.32;;;2.53;;
81180;SDS011;70650;51.408;7.132;2023-06-24T13:51:18;6.05;;;2.65;;
81180;SDS011;70650;51.408;7.132;2023-06-24T13:53:45;5.40;;;2.47;;
81180;SDS011;70650;51.408;7.132;2023-06-24T13:56:10;6.00;;;2.67;;
81180;SDS011;70650;51.408;7.132;2023-06-24T13:58:35;6.90;;;3.20;;
81180;SDS011;70650;51.408;7.132;2023-06-24T14:01:01;6.03;;;2.67;;
81180;SDS011;70650;51.408;7.132;2023-06-24T14:03:26;7.77;;;2.90;;
81180;SDS011;70650;51.408;7.132;2023-06-24T14:05:51;5.53;;;2.70;;
81180;SDS011;70650;51.408;7.132;2023-06-24T14:08:17;6.18;;;3.03;;
81180;SDS011;70650;51.408;7.132;2023-06-24T14:10:42;5.90;;;2.90;;
81180;SDS011;70650;51.408;7.132;2023-06-24T14:13:07;6.87;;;3.03;;
81180;SDS011;70650;51.408;7.132;2023-06-24T14:15:33;6.88;;;3.78;;
81180;SDS011;70650;51.408;7.132;2023-06-24T14:17:58;6.93;;;3.33;;
81180;SDS011;70650;51.408;7.132;2023-06-24T14:20:23;6.47;;;3.60;;
81180;SDS011;70650;51.408;7.132;2023-06-24T14:22:50;8.07;;;3.40;;
81180;SDS011;70650;51.408;7.132;2023-06-24T14:25:15;5.85;;;3.67;;
81180;SDS011;70650;51.408;7.132;2023-06-24T14:27:40;6.75;;;2.90;;
81180;SDS011;70650;51.408;7.132;2023-06-24T14:30:06;6.70;;;3.60;;
81180;SDS011;70650;51.408;7.132;2023-06-24T14:32:33;5.85;;;3.30;;
81180;SDS011;70650;51.408;7.132;2023-06-24T14:34:58;6.07;;;3.20;;
81180;SDS011;70650;51.408;7.132;2023-06-24T14:37:23;8.03;;;4.50;;
81180;SDS011;70650;51.408;7.132;2023-06-24T14:39:49;7.27;;;3.73;;
81180;SDS011;70650;51.408;7.132;2023-06-24T14:42:15;7.80;;;3.60;;
81180;SDS011;70650;51.408;7.132;2023-06-24T14:44:40;6.38;;;3.03;;
81180;SDS011;70650;51.408;7.132;2023-06-24T14:47:06;7.10;;;3.63;;
81180;SDS011;70650;51.408;7.132;2023-06-24T14:49:31;6.43;;;3.58;;
81180;SDS011;70650;51.408;7.132;2023-06-24T14:51:56;6.43;;;3.67;;
81180;SDS011;70650;51.408;7.132;2023-06-24T14:54:22;6.17;;;4.23;;
81180;SDS011;70650;51.408;7.132;2023-06-24T14:56:47;7.78;;;3.67;;
81180;SDS011;70650;51.408;7.132;2023-06-24T14:59:13;8.63;;;4.53;;
81180;SDS011;70650;51.408;7.132;2023-06-24T15:01:38;6.90;;;4.25;;
81180;SDS011;70650;51.408;7.132;2023-06-24T15:04:03;6.68;;;5.07;;